createdAt,value
2018-09-08T00:01:19.497Z,4.75
2018-09-08T00:03:55.511Z,4.65
2018-09-08T00:06:34.576Z,4.40
2018-09-08T00:09:11.400Z,3.90
2018-09-08T00:11:45.705Z,4.12
2018-09-08T00:14:20.670Z,3.60
2018-09-08T00:17:03.743Z,3.58
2018-09-08T00:19:45.350Z,4.25
2018-09-08T00:22:26.319Z,4.20
2018-09-08T00:25:06.453Z,4.28
2018-09-08T00:27:48.205Z,4.20
2018-09-08T00:30:20.653Z,3.80
2018-09-08T00:32:57.774Z,3.98
2018-09-08T00:35:39.596Z,3.95
2018-09-08T00:38:16.711Z,4.10
2018-09-08T00:40:53.230Z,4.10
2018-09-08T00:43:26.857Z,3.98
2018-09-08T00:45:59.144Z,3.55
2018-09-08T00:48:37.529Z,3.55
2018-09-08T00:51:13.270Z,3.95
2018-09-08T00:53:44.551Z,3.52
2018-09-08T00:56:21.471Z,4.22
2018-09-08T00:59:00.972Z,3.47
2018-09-08T01:01:40.068Z,4.08
2018-09-08T01:04:13.821Z,3.98
2018-09-08T01:06:49.845Z,3.85
2018-09-08T01:09:25.911Z,3.85
2018-09-08T01:12:01.293Z,4.25
2018-09-08T01:14:35.052Z,4.30
2018-09-08T01:17:12.170Z,3.70
2018-09-08T01:19:51.543Z,4.05
2018-09-08T01:22:23.597Z,4.50
2018-09-08T01:25:03.131Z,4.28
2018-09-08T01:27:38.772Z,4.40
2018-09-08T01:30:14.427Z,4.25
2018-09-08T01:32:49.018Z,4.20
2018-09-08T01:35:22.253Z,4.42
2018-09-08T01:37:56.572Z,4.30
2018-09-08T01:40:34.839Z,4.42
2018-09-08T01:43:10.068Z,4.20
2018-09-08T01:45:43.195Z,4.40
2018-09-08T01:48:20.172Z,4.50
2018-09-08T01:50:53.257Z,4.75
2018-09-08T01:53:29.903Z,3.90
2018-09-08T01:56:04.008Z,4.00
2018-09-08T01:58:40.362Z,4.17
2018-09-08T02:01:19.057Z,3.70
2018-09-08T02:03:57.416Z,4.50
2018-09-08T02:06:33.419Z,4.10
2018-09-08T02:09:04.907Z,3.47
2018-09-08T02:11:38.673Z,4.12
2018-09-08T02:14:13.015Z,3.90
2018-09-08T02:16:49.841Z,4.42
2018-09-08T02:19:23.781Z,4.30
2018-09-08T02:21:55.509Z,4.58
2018-09-08T02:24:30.696Z,4.50
2018-09-08T02:27:02.484Z,4.53
2018-09-08T02:29:34.588Z,4.40
2018-09-08T02:32:11.018Z,4.60
2018-09-08T02:34:45.325Z,3.90
2018-09-08T02:37:16.911Z,3.75
2018-09-08T02:39:52.911Z,4.50
2018-09-08T02:42:30.124Z,4.20
2018-09-08T02:45:04.162Z,3.80
2018-09-08T02:47:43.449Z,3.87
2018-09-08T02:50:24.756Z,3.55
2018-09-08T02:52:55.740Z,4.28
2018-09-08T02:55:34.348Z,4.03
2018-09-08T02:58:07.617Z,3.35
2018-09-08T03:00:36.478Z,4.08
2018-09-08T03:03:06.101Z,4.15
2018-09-08T03:05:36.278Z,3.30
2018-09-08T03:08:11.420Z,3.80
2018-09-08T03:10:40.317Z,3.67
2018-09-08T03:13:15.044Z,3.42
2018-09-08T03:15:45.139Z,3.80
2018-09-08T03:18:16.267Z,4.00
2018-09-08T03:20:45.189Z,4.22
2018-09-08T03:23:15.092Z,4.35
2018-09-08T03:25:48.124Z,4.25
2018-09-08T03:28:18.488Z,4.15
2018-09-08T03:30:49.338Z,4.15
2018-09-08T03:33:18.741Z,4.10
2018-09-08T03:35:48.692Z,4.10
2018-09-08T03:38:19.737Z,4.30
2018-09-08T03:40:47.442Z,4.97
2018-09-08T03:43:16.568Z,5.03
2018-09-08T03:45:47.988Z,4.85
2018-09-08T03:48:16.964Z,5.10
2018-09-08T03:50:50.811Z,4.53
2018-09-08T03:53:19.804Z,4.70
2018-09-08T03:55:49.376Z,4.90
2018-09-08T03:58:17.989Z,4.92
2018-09-08T04:00:47.750Z,4.17
2018-09-08T04:03:21.723Z,4.60
2018-09-08T04:05:56.588Z,4.10
2018-09-08T04:08:28.482Z,4.25
2018-09-08T04:11:01.838Z,4.20
2018-09-08T04:13:35.240Z,4.70
2018-09-08T04:16:13.692Z,6.10
2018-09-08T04:18:44.902Z,5.50
2018-09-08T04:21:20.549Z,5.53
2018-09-08T04:23:54.088Z,5.55
2018-09-08T04:26:34.057Z,4.70
2018-09-08T04:29:10.394Z,5.50
2018-09-08T04:31:48.505Z,4.67
2018-09-08T04:34:22.363Z,4.20
2018-09-08T04:37:01.023Z,4.20
2018-09-08T04:39:34.464Z,4.15
2018-09-08T04:42:08.558Z,4.00
2018-09-08T04:44:41.906Z,4.60
2018-09-08T04:47:13.256Z,4.12
2018-09-08T04:49:48.055Z,4.75
2018-09-08T04:52:28.483Z,4.35
2018-09-08T04:54:59.964Z,4.67
2018-09-08T04:57:33.138Z,4.97
2018-09-08T05:00:04.588Z,4.25
2018-09-08T05:02:37.135Z,4.33
2018-09-08T05:05:12.148Z,3.20
2018-09-08T05:07:42.875Z,3.40
2018-09-08T05:10:16.532Z,3.40
2018-09-08T05:12:49.903Z,3.30
2018-09-08T05:15:22.175Z,3.40
2018-09-08T05:17:59.605Z,3.37
2018-09-08T05:20:31.693Z,3.45
2018-09-08T05:23:04.881Z,3.65
2018-09-08T05:25:36.889Z,3.30
2018-09-08T05:28:08.366Z,5.28
2018-09-08T05:30:40.785Z,4.05
2018-09-08T05:33:12.468Z,5.08
2018-09-08T05:35:46.816Z,4.12
2018-09-08T05:38:18.336Z,5.60
2018-09-08T05:40:52.420Z,4.42
2018-09-08T05:43:26.823Z,5.53
2018-09-08T05:46:01.573Z,4.95
2018-09-08T05:48:34.296Z,5.12
2018-09-08T05:51:05.988Z,4.92
2018-09-08T05:53:36.425Z,5.50
2018-09-08T05:56:11.033Z,5.17
2018-09-08T05:58:40.946Z,6.17
2018-09-08T06:01:12.315Z,5.20
2018-09-08T06:03:42.318Z,5.47
2018-09-08T06:06:14.500Z,5.33
2018-09-08T06:08:45.765Z,4.95
2018-09-08T06:11:15.462Z,4.80
2018-09-08T06:13:47.846Z,5.12
2018-09-08T06:16:21.229Z,4.70
2018-09-08T06:18:52.067Z,4.37
2018-09-08T06:21:21.640Z,4.17
2018-09-08T06:23:50.933Z,4.20
2018-09-08T06:26:26.090Z,4.75
2018-09-08T06:28:59.365Z,5.50
2018-09-08T06:31:30.799Z,4.70
2018-09-08T06:34:06.542Z,5.37
2018-09-08T06:36:41.972Z,4.45
2018-09-08T06:39:13.014Z,3.72
2018-09-08T06:41:44.693Z,3.20
2018-09-08T06:44:16.633Z,3.62
2018-09-08T06:46:47.807Z,3.50
2018-09-08T06:49:19.752Z,3.10
2018-09-08T06:51:52.651Z,3.27
2018-09-08T06:54:27.399Z,3.20
2018-09-08T06:57:01.727Z,3.37
2018-09-08T06:59:35.442Z,2.95
2018-09-08T07:02:07.460Z,3.05
2018-09-08T07:04:41.886Z,3.77
2018-09-08T07:07:14.765Z,2.92
2018-09-08T07:09:49.494Z,3.30
2018-09-08T07:12:22.622Z,3.50
2018-09-08T07:14:54.769Z,3.52
2018-09-08T07:17:28.767Z,2.77
2018-09-08T07:20:00.393Z,2.87
2018-09-08T07:22:31.274Z,2.83
2018-09-08T07:25:04.225Z,6.10
2018-09-08T07:27:38.913Z,3.40
2018-09-08T07:30:10.194Z,4.15
2018-09-08T07:32:42.155Z,3.72
2018-09-08T07:35:14.856Z,5.45
2018-09-08T07:37:47.235Z,3.22
2018-09-08T07:40:20.179Z,3.60
2018-09-08T07:42:57.875Z,5.53
2018-09-08T07:45:29.371Z,3.55
2018-09-08T07:48:00.307Z,3.95
2018-09-08T07:50:30.450Z,3.95
2018-09-08T07:53:06.855Z,3.75
2018-09-08T07:55:38.310Z,4.50
2018-09-08T07:58:13.305Z,4.60
2018-09-08T08:00:45.328Z,5.08
2018-09-08T08:03:18.789Z,4.83
2018-09-08T08:05:52.055Z,5.17
2018-09-08T08:08:27.589Z,5.28
2018-09-08T08:10:58.289Z,5.03
2018-09-08T08:13:38.377Z,4.80
2018-09-08T08:16:09.815Z,5.45
2018-09-08T08:18:45.789Z,5.58
2018-09-08T08:21:19.091Z,4.60
2018-09-08T08:23:49.204Z,4.78
2018-09-08T08:26:21.462Z,4.75
2018-09-08T08:28:54.619Z,4.53
2018-09-08T08:31:27.666Z,4.17
2018-09-08T08:33:59.958Z,4.60
2018-09-08T08:36:30.702Z,4.25
2018-09-08T08:39:02.043Z,3.50
2018-09-08T08:41:35.504Z,3.60
2018-09-08T08:44:08.552Z,3.45
2018-09-08T08:46:43.920Z,2.90
2018-09-08T08:49:16.075Z,3.55
2018-09-08T08:51:55.625Z,3.15
2018-09-08T08:54:35.521Z,3.47
2018-09-08T08:57:09.374Z,4.60
2018-09-08T08:59:45.093Z,3.67
2018-09-08T09:02:19.524Z,3.20
2018-09-08T09:04:52.107Z,2.70
2018-09-08T09:07:22.628Z,2.30
2018-09-08T09:09:54.164Z,2.30
2018-09-08T09:12:27.873Z,2.60
2018-09-08T09:14:59.886Z,3.00
2018-09-08T09:17:38.002Z,2.70
2018-09-08T09:22:23.075Z,5.05
2018-09-08T09:25:08.408Z,2.80
2018-09-08T09:27:45.062Z,2.15
2018-09-08T09:30:18.286Z,2.72
2018-09-08T09:32:49.718Z,2.15
2018-09-08T09:35:24.562Z,2.75
2018-09-08T09:37:58.755Z,3.15
2018-09-08T09:40:32.496Z,2.90
2018-09-08T09:43:03.577Z,2.50
2018-09-08T09:45:36.712Z,2.33
2018-09-08T09:48:10.112Z,2.67
2018-09-08T09:50:41.869Z,2.80
2018-09-08T09:53:15.686Z,2.83
2018-09-08T09:55:49.010Z,2.30
2018-09-08T09:58:27.237Z,2.75
2018-09-08T10:01:08.406Z,2.92
2018-09-08T10:03:41.886Z,2.75
2018-09-08T10:06:15.278Z,2.45
2018-09-08T10:08:45.325Z,2.52
2018-09-08T10:11:17.564Z,2.55
2018-09-08T10:13:49.798Z,2.20
2018-09-08T10:16:20.444Z,3.17
2018-09-08T10:18:57.559Z,2.90
2018-09-08T10:21:29.055Z,2.60
2018-09-08T10:24:06.781Z,2.52
2018-09-08T10:26:43.614Z,2.80
2018-09-08T10:29:15.749Z,3.25
2018-09-08T10:31:56.229Z,2.80
2018-09-08T10:34:27.309Z,3.58
2018-09-08T10:37:04.222Z,2.65
2018-09-08T10:39:36.456Z,3.20
2018-09-08T10:42:09.229Z,2.60
2018-09-08T10:44:44.499Z,2.72
2018-09-08T10:47:14.736Z,2.30
2018-09-08T10:49:47.721Z,2.27
2018-09-08T10:52:31.304Z,2.60
2018-09-08T10:55:02.986Z,2.80
2018-09-08T10:57:33.353Z,2.35
2018-09-08T11:00:03.003Z,2.58
2018-09-08T11:02:32.693Z,2.52
2018-09-08T11:05:01.086Z,2.22
2018-09-08T11:07:29.125Z,2.40
2018-09-08T11:09:56.667Z,2.52
2018-09-08T11:12:25.494Z,2.35
2018-09-08T11:14:54.165Z,2.15
2018-09-08T11:17:22.550Z,2.12
2018-09-08T11:19:51.360Z,2.40
2018-09-08T11:22:19.559Z,1.92
2018-09-08T11:27:28.149Z,2.20
2018-09-08T11:29:59.963Z,2.30
2018-09-08T11:32:32.148Z,2.50
2018-09-08T11:35:07.967Z,2.20
2018-09-08T11:37:43.250Z,1.70
2018-09-08T11:40:17.934Z,2.40
2018-09-08T11:42:49.600Z,2.43
2018-09-08T11:45:21.898Z,2.30
2018-09-08T11:47:58.909Z,2.53
2018-09-08T11:50:34.989Z,2.20
2018-09-08T11:53:11.867Z,2.93
2018-09-08T11:58:23.251Z,2.20
2018-09-08T12:00:50.822Z,2.50
2018-09-08T12:03:23.803Z,2.47
2018-09-08T12:05:57.575Z,2.33
2018-09-08T12:08:31.899Z,2.50
2018-09-08T12:11:04.104Z,2.17
2018-09-08T12:13:36.886Z,2.57
2018-09-08T12:16:08.420Z,1.80
2018-09-08T12:18:40.071Z,1.90
2018-09-08T12:21:10.667Z,2.30
2018-09-08T12:23:45.004Z,2.47
2018-09-08T12:26:17.576Z,2.00
2018-09-08T12:28:51.834Z,2.13
2018-09-08T12:31:23.906Z,2.23
2018-09-08T12:33:54.218Z,2.07
2018-09-08T12:36:24.109Z,2.10
2018-09-08T12:38:56.891Z,2.20
2018-09-08T12:41:24.669Z,2.00
2018-09-08T12:43:52.186Z,2.30
2018-09-08T12:46:19.786Z,2.40
2018-09-08T12:48:47.277Z,2.70
2018-09-08T12:51:14.862Z,2.33
2018-09-08T12:53:42.434Z,2.47
2018-09-08T12:56:09.994Z,2.83
2018-09-08T12:58:37.572Z,2.10
2018-09-08T13:01:05.186Z,2.20
2018-09-08T13:03:32.741Z,2.30
2018-09-08T13:06:00.325Z,2.30
2018-09-08T13:08:27.978Z,2.27
2018-09-08T13:10:55.493Z,2.43
2018-09-08T13:13:23.108Z,2.10
2018-09-08T13:15:50.625Z,2.50
2018-09-08T13:18:18.374Z,2.47
2018-09-08T13:20:45.878Z,2.23
2018-09-08T13:23:13.482Z,2.50
2018-09-08T13:25:40.943Z,2.10
2018-09-08T13:28:08.543Z,2.20
2018-09-08T13:30:39.287Z,2.43
2018-09-08T13:33:17.667Z,2.37
2018-09-08T13:35:53.624Z,2.03
2018-09-08T13:38:21.337Z,2.30
2018-09-08T13:40:50.251Z,2.57
2018-09-08T13:43:17.887Z,2.20
2018-09-08T13:45:45.427Z,2.07
2018-09-08T13:48:12.918Z,2.40
2018-09-08T13:50:40.469Z,2.00
2018-09-08T13:53:08.031Z,2.83
2018-09-08T13:55:35.538Z,2.30
2018-09-08T13:58:03.072Z,2.20
2018-09-08T14:00:30.631Z,2.10
2018-09-08T14:02:58.146Z,2.20
2018-09-08T14:05:25.838Z,2.23
2018-09-08T14:07:55.594Z,2.50
2018-09-08T14:10:23.252Z,2.50
2018-09-08T14:12:50.857Z,2.20
2018-09-08T14:15:19.360Z,2.20
2018-09-08T14:17:46.851Z,2.30
2018-09-08T14:20:14.531Z,2.20
2018-09-08T14:22:42.143Z,2.70
2018-09-08T14:25:10.022Z,2.50
2018-09-08T14:27:37.986Z,2.40
2018-09-08T14:30:05.866Z,2.00
2018-09-08T14:32:33.418Z,2.27
2018-09-08T14:35:01.082Z,2.30
2018-09-08T14:37:28.704Z,2.00
2018-09-08T14:39:56.380Z,2.20
2018-09-08T14:42:24.075Z,2.27
2018-09-08T14:44:51.853Z,2.10
2018-09-08T14:47:19.428Z,2.00
2018-09-08T14:49:47.076Z,2.00
2018-09-08T14:52:14.664Z,2.30
2018-09-08T14:54:42.262Z,2.10
2018-09-08T14:57:10.294Z,2.50
2018-09-08T14:59:38.174Z,2.10
2018-09-08T15:02:06.213Z,2.70
2018-09-08T15:04:33.924Z,2.37
2018-09-08T15:07:01.577Z,2.20
2018-09-08T15:09:31.329Z,2.50
2018-09-08T15:12:02.725Z,2.33
2018-09-08T15:14:32.664Z,2.47
2018-09-08T15:17:06.070Z,2.30
2018-09-08T15:19:41.649Z,2.27
2018-09-08T15:22:15.082Z,2.63
2018-09-08T15:24:49.981Z,2.50
2018-09-08T15:27:23.026Z,2.17
2018-09-08T15:29:55.342Z,2.33
2018-09-08T15:32:31.208Z,2.30
2018-09-08T15:35:05.435Z,2.30
2018-09-08T15:37:42.510Z,2.67
2018-09-08T15:40:16.243Z,2.00
2018-09-08T15:42:50.232Z,2.13
2018-09-08T15:45:23.324Z,2.30
2018-09-08T15:48:03.598Z,2.60
2018-09-08T15:50:38.681Z,2.20
2018-09-08T15:53:11.103Z,2.27
2018-09-08T15:55:47.518Z,2.13
2018-09-08T15:58:20.950Z,2.07
2018-09-08T16:00:55.453Z,2.67
2018-09-08T16:03:29.810Z,2.73
2018-09-08T16:06:02.796Z,1.80
2018-09-08T16:08:35.813Z,2.30
2018-09-08T16:11:12.380Z,2.37
2018-09-08T16:13:47.309Z,3.23
2018-09-08T16:16:21.943Z,2.47
2018-09-08T16:18:57.650Z,2.63
2018-09-08T16:21:33.339Z,2.60
2018-09-08T16:24:06.219Z,2.40
2018-09-08T16:26:44.105Z,2.10
2018-09-08T16:33:56.197Z,2.50
2018-09-08T16:36:34.543Z,2.20
2018-09-08T16:39:15.184Z,2.80
2018-09-08T16:41:54.238Z,2.13
2018-09-08T16:44:30.775Z,2.03
2018-09-08T16:47:05.878Z,2.30
2018-09-08T16:49:42.167Z,2.70
2018-09-08T16:52:13.638Z,2.80
2018-09-08T16:54:50.384Z,2.40
2018-09-08T16:57:22.099Z,2.43
2018-09-08T16:59:59.540Z,2.40
2018-09-08T17:02:34.011Z,2.85
2018-09-08T17:05:10.272Z,3.02
2018-09-08T17:07:42.183Z,2.65
2018-09-08T17:10:10.519Z,2.67
2018-09-08T17:12:38.022Z,2.55
2018-09-08T17:15:06.521Z,2.20
2018-09-08T17:17:35.566Z,2.13
2018-09-08T17:20:03.730Z,2.70
2018-09-08T17:22:31.895Z,2.50
2018-09-08T17:25:01.047Z,2.50
2018-09-08T17:47:31.699Z,2.73
2018-09-08T17:50:04.954Z,2.60
2018-09-08T17:52:37.287Z,2.87
2018-09-08T17:55:10.537Z,2.80
2018-09-08T17:57:46.430Z,2.50
2018-09-08T18:00:20.412Z,2.70
2018-09-08T18:02:56.593Z,2.95
2018-09-08T18:05:29.215Z,2.80
2018-09-08T18:08:02.949Z,2.80
2018-09-08T18:10:36.793Z,2.95
2018-09-08T18:13:11.714Z,3.30
2018-09-08T18:15:44.054Z,2.30
2018-09-08T18:18:19.312Z,2.80
2018-09-08T18:20:52.855Z,2.42
2018-09-08T18:23:23.994Z,2.87
2018-09-08T18:25:59.031Z,3.10
2018-09-08T18:28:31.300Z,2.42
2018-09-08T18:31:04.027Z,2.37
2018-09-08T18:33:37.030Z,2.40
2018-09-08T18:36:08.262Z,2.52
2018-09-08T18:38:40.383Z,2.58
2018-09-08T18:41:10.913Z,2.50
2018-09-08T18:43:42.227Z,2.80
2018-09-08T18:46:12.348Z,2.50
2018-09-08T18:48:42.518Z,2.60
2018-09-08T18:51:13.854Z,2.58
2018-09-08T18:53:45.141Z,2.40
2018-09-08T18:56:17.139Z,2.95
2018-09-08T18:58:51.912Z,2.55
2018-09-08T19:01:26.147Z,2.30
2018-09-08T19:04:00.950Z,2.20
2018-09-08T19:06:31.205Z,2.60
2018-09-08T19:09:02.986Z,2.20
2018-09-08T19:11:33.307Z,2.42
2018-09-08T19:14:04.843Z,2.60
2018-09-08T19:16:35.639Z,2.40
2018-09-08T19:19:13.885Z,2.40
2018-09-08T19:21:46.733Z,2.45
2018-09-08T19:24:24.358Z,2.70
2018-09-08T19:26:55.642Z,2.40
2018-09-08T19:29:35.727Z,2.83
2018-09-08T19:32:08.358Z,2.00
2018-09-08T19:34:39.776Z,2.60
2018-09-08T19:37:12.655Z,2.50
2018-09-08T19:39:47.598Z,2.58
2018-09-08T19:42:19.846Z,2.30
2018-09-08T19:44:53.910Z,2.30
2018-09-08T19:47:29.981Z,2.65
2018-09-08T19:50:05.197Z,2.70
2018-09-08T19:52:41.154Z,3.22
2018-09-08T19:55:13.886Z,2.65
2018-09-08T19:57:50.386Z,3.30
2018-09-08T20:00:23.118Z,2.75
2018-09-08T20:05:50.833Z,3.00
2018-09-08T20:08:21.974Z,3.30
2018-09-08T20:10:54.401Z,4.28
2018-09-08T20:13:28.066Z,3.47
2018-09-08T20:15:59.910Z,3.52
2018-09-08T20:18:31.340Z,3.60
2018-09-08T20:21:05.548Z,3.40
2018-09-08T20:23:38.407Z,3.87
2018-09-08T20:26:10.743Z,3.20
2018-09-08T20:28:41.554Z,3.90
2018-09-08T20:31:18.789Z,3.52
2018-09-08T20:33:51.043Z,3.50
2018-09-08T20:36:24.983Z,3.12
2018-09-08T20:38:58.071Z,3.10
2018-09-08T20:41:32.719Z,3.30
2018-09-08T20:44:05.530Z,2.95
2018-09-08T20:46:40.194Z,3.10
2018-09-08T20:49:12.961Z,2.80
2018-09-08T20:51:46.521Z,2.83
2018-09-08T20:54:17.513Z,3.50
2018-09-08T20:56:50.641Z,2.75
2018-09-08T20:59:25.718Z,3.15
2018-09-08T21:02:00.865Z,2.80
2018-09-08T21:04:35.551Z,2.70
2018-09-08T21:07:09.957Z,2.77
2018-09-08T21:09:41.554Z,2.80
2018-09-08T21:12:13.239Z,2.42
2018-09-08T21:14:43.127Z,3.30
2018-09-08T21:17:18.946Z,2.70
2018-09-08T21:19:49.953Z,3.22
2018-09-08T21:22:21.741Z,2.70
2018-09-08T21:24:53.459Z,2.75
2018-09-08T21:27:28.179Z,2.85
2018-09-08T21:30:00.192Z,2.80
2018-09-08T21:32:37.204Z,3.20
2018-09-08T21:35:08.774Z,2.70
2018-09-08T21:37:38.367Z,2.67
2018-09-08T21:40:10.597Z,2.60
2018-09-08T21:42:42.794Z,2.87
2018-09-08T21:45:15.015Z,2.80
2018-09-08T21:47:46.086Z,2.65
2018-09-08T21:50:18.228Z,2.30
2018-09-08T21:52:50.243Z,2.80
2018-09-08T21:55:22.760Z,2.65
2018-09-08T21:57:55.379Z,2.80
2018-09-08T22:00:26.610Z,2.50
2018-09-08T22:02:59.148Z,2.62
2018-09-08T22:05:31.904Z,2.92
2018-09-08T22:08:02.444Z,2.70
2018-09-08T22:10:34.907Z,2.77
2018-09-08T22:13:07.535Z,3.20
2018-09-08T22:15:40.230Z,2.70
2018-09-08T22:18:11.937Z,2.98
2018-09-08T22:20:45.118Z,2.77
2018-09-08T22:23:16.557Z,2.65
2018-09-08T22:25:50.335Z,2.83
2018-09-08T22:28:22.882Z,3.10
2018-09-08T22:30:53.742Z,2.80
2018-09-08T22:33:25.514Z,3.37
2018-09-08T22:36:02.441Z,3.17
2018-09-08T22:38:33.273Z,3.65
2018-09-08T22:41:05.556Z,3.42
2018-09-08T22:43:38.165Z,3.20
2018-09-08T22:46:10.114Z,3.12
2018-09-08T22:48:43.251Z,3.40
2018-09-08T22:51:16.595Z,3.00
2018-09-08T22:53:47.226Z,3.42
2018-09-08T22:56:25.534Z,3.47
2018-09-08T22:58:55.829Z,3.52
2018-09-08T23:01:27.754Z,3.65
2018-09-08T23:04:00.260Z,3.45
2018-09-08T23:06:34.213Z,3.40
2018-09-08T23:09:06.108Z,3.55
2018-09-08T23:11:40.566Z,3.83
2018-09-08T23:14:13.208Z,3.85
2018-09-08T23:16:45.844Z,3.72
2018-09-08T23:19:19.555Z,3.90
2018-09-08T23:21:52.638Z,3.87
2018-09-08T23:24:22.955Z,3.80
2018-09-08T23:26:54.519Z,4.40
2018-09-08T23:29:29.898Z,4.65
2018-09-08T23:32:02.178Z,4.40
2018-09-08T23:34:38.300Z,3.80
2018-09-08T23:37:13.109Z,3.70
2018-09-08T23:39:45.789Z,3.75
2018-09-08T23:42:18.650Z,3.12
2018-09-08T23:44:51.532Z,4.05
2018-09-08T23:47:27.325Z,3.65
2018-09-08T23:50:00.693Z,3.67
2018-09-08T23:52:35.436Z,3.80
2018-09-08T23:55:05.555Z,3.75
2018-09-08T23:57:36.187Z,3.85
